Ana Sayfa
METAR-TAF:

METAR-TAF

Havaalanları :

Cabo San Lucas, Meksika

Enlem: 22-56-51N, Boylam: 109-56-13W, yükseklik: 210 m

Güncel hava durumu gözlemi

Rapor saat 11:52 UTC de 40 dakika önce yapıldı.
Rüzgar kuzeybatıdan 10 kt
Sıcaklık 26°C
Nem 42%
Basınç 1011 hPa
Görüş mesafesi: 16.1 km
Açık gökyüzü

METAR: MMSL 171152Z 31010KT 10SM SKC 26/12 A2986 RMK RTS

Saat: 05:32 (12:32 UTC)

Tahmin

Rapor saat 04:13 UTC de 8 saat ve 19 dakika önce yapıldı.
Ayın 17'si saat 06 UTC'den ayın 18'si saat 06 UTC'ye kadar geçerli Tahmin
Rüzgar batıdan 8 kt
Görüş mesafesi: 10 km
Açık gökyüzü
Ayın 17'si saat 1800 UTC'den
Rüzgar güneybatıdan 12 kt
Görüş mesafesi: 10 km
25000 ft yükseklikte parçalı bulutlu
Ayın 18'si saat 0500 UTC'den
Rüzgar batı/kuzeybatıdan 7 kt
Görüş mesafesi: 10 km
Açık gökyüzü

TAF: MMSL 170413Z 1706/1806 27008KT P6SM SKC FM171800 22012KT P6SM SCT250 FM180500 29007KT P6SM SKC

4.000'den fazla havaalanı için hava durumu gözlemleri ve tahminleri (METAR ve TAF raporları).

Kullanılabilir istasyonlar harita üzerinde sarı ve kırmızı noktalarla gösterilir.

İstasyonun adını görmek için fareyi noktanın üzerinde gezdirin.

Sonrasında hava gözlem ve tahminlerini görmek için tıklayın.

Haritayı değiştirmek için: yaklaştırmak için siyah artı işaretli yeşil düğmeye ve uzaklaştırmak için de eksi işaretli düğmeye hızla tıklayın; bitişik haritalar için yeşil okları kullanın.


METAR-TAF: